KMBL

Manistee Co-Blacker Airport

Manistee, Michigan, USA
METAR KMBL 191056Z AUTO 12004KT 7SM CLR M01/M02 A2987 RMK AO2 SLP136 T10061017 FZRANO
Observed Flight Rules
Dec-19 @ 10:56 UTC (57 minutes ago) Visual Flight Rules
Wind Visibility Clouds
120° at 4 knots 7 miles
  • Clear skies
Temperatures Readings
Current -1°C / 30°F
Dewpoint -2°C / 28°F
Humidity 93%
Altimeter 29.87" Hg
Pressure 1013.6 hPa
Elevation 189
METAR KMBL 191056Z AUTO 12004KT 7SM CLR M01/M02 A2987 RMK AO2 SLP136 T10061017 FZRANO
Observed Flight Rules
Dec-19 @ 10:56 UTC
(57 minutes ago)
VFR
Wind Visibility
120° at 4 knots 7 miles
Clouds
  • Clear skies
Temperature Dewpoint
-1°C / 30°F -2°C / 28°F
Humidity Altimeter Pressure
93% 29.87" Hg 1013.6 hPa